Huntingdon Valley, Pennsylvania
Current Conditions -  °F | °C
As of 9:54 PM on Monday 22 Dec 2014 (Local Time) from KPNE Reporting Station
Light Rain Light Rain  
Wind Chill: 38°   Ceiling: 7000
Heat Index: 43°   Visibility: 5mi
Dew Point: 38°   Wind: 9mph
Humidity: 82%   Direction: 50°NE
Pressure: 30.16"   Gusts: NA
Location:  40.12°N, 75.06°W
Report Text: KPNE 230254Z AUTO 05008KT 5SM -RA FEW011 OVC070 06/03 A3016 RMK AO2 RAB22 SLP213 P0001 60002 T00610033 58016 TSNO
Loading
Personal Weather Stations






























Interactive Weather Map New forecast layout! Learn more

10-Day Weather Forecast

Advertisements
Track Severe Weather on mobile